Time;durP1;ratioP1;P1;durP2;ratioP2;P2;SDS_P1;SDS_P2;PMS_P1;PMS_P2;Temp;Humidity;BMP_temperature;BMP_pressure;BME280_temperature;BME280_humidity;BME280_pressure;Samples;Min_cycle;Max_cycle;Signal;HPM_P1;HPM_P2
2023/09/08 00:01:03;;;;;;;5.93;3.35;;;16.40;99.90;16.40;101230.00;;;;5023632;27;103994;-68
2023/09/08 00:03:28;;;;;;;4.93;2.70;;;16.40;99.90;16.40;101230.00;;;;5029117;27;117037;-67
2023/09/08 00:05:54;;;;;;;2.83;2.50;;;16.30;99.90;16.30;101229.00;;;;5025612;27;110624;-66
2023/09/08 00:08:20;;;;;;;2.97;2.55;;;16.30;99.90;16.30;101236.00;;;;5025582;27;109914;-65
2023/09/08 00:10:46;;;;;;;7.15;3.35;;;16.20;99.90;16.20;101237.00;;;;5028144;27;95467;-66
2023/09/08 00:13:11;;;;;;;2.78;2.58;;;16.20;99.90;16.20;101243.00;;;;5021373;27;102718;-67
2023/09/08 00:15:38;;;;;;;3.85;2.88;;;16.10;99.90;16.10;101233.00;;;;5027276;27;87973;-68
2023/09/08 00:18:04;;;;;;;4.68;3.65;;;16.10;99.90;16.10;101242.00;;;;5023147;27;88007;-67
2023/09/08 00:20:29;;;;;;;3.33;2.83;;;16.00;99.90;16.00;101239.00;;;;5023083;27;102545;-67
2023/09/08 00:22:55;;;;;;;4.10;3.40;;;16.00;99.90;16.00;101232.00;;;;5020624;27;119470;-66
2023/09/08 00:25:20;;;;;;;8.02;3.67;;;15.90;99.90;15.90;101230.00;;;;5028613;27;96965;-67
2023/09/08 00:27:46;;;;;;;3.83;3.13;;;16.00;99.90;15.90;101232.00;;;;5026459;27;108194;-67
2023/09/08 00:30:12;;;;;;;4.28;3.15;;;15.80;99.90;15.80;101230.00;;;;5025411;27;119605;-66
2023/09/08 00:32:38;;;;;;;3.25;2.95;;;15.80;99.90;15.80;101223.00;;;;5028533;27;109477;-66
2023/09/08 00:35:08;;;;;;;4.63;3.40;;;15.80;99.90;15.70;101224.00;;;;5028834;27;103970;-66
2023/09/08 00:37:33;;;;;;;6.55;3.35;;;15.70;99.90;15.70;101218.00;;;;5027341;27;87880;-67
2023/09/08 00:39:59;;;;;;;4.53;3.47;;;15.70;99.90;15.70;101225.00;;;;5023788;27;116864;-67
2023/09/08 00:42:24;;;;;;;5.22;2.63;;;15.60;99.90;15.60;101228.00;;;;5026257;27;116910;-67
2023/09/08 00:44:50;;;;;;;4.63;2.67;;;15.50;99.90;15.50;101221.00;;;;5031640;27;110550;-67
2023/09/08 00:47:16;;;;;;;4.25;3.65;;;15.50;99.90;15.50;101219.00;;;;5026804;27;109519;-67
2023/09/08 00:49:41;;;;;;;4.55;2.80;;;15.50;99.90;15.40;101228.00;;;;5010758;27;116579;-67
2023/09/08 00:52:07;;;;;;;3.28;2.60;;;15.40;99.90;15.40;101221.00;;;;5027616;27;105117;-67
2023/09/08 00:54:33;;;;;;;4.65;3.03;;;15.40;99.90;15.40;101214.00;;;;5030740;27;88606;-67
2023/09/08 00:57:03;;;;;;;3.78;2.90;;;15.30;99.90;15.40;101222.00;;;;5028561;27;87813;-67
2023/09/08 00:59:32;;;;;;;5.85;3.25;;;15.30;99.90;15.40;101224.00;;;;5029052;27;89194;-67
2023/09/08 01:01:58;;;;;;;3.53;3.22;;;15.30;99.90;15.30;101220.00;;;;5030143;27;88565;-68
2023/09/08 01:04:24;;;;;;;4.28;3.38;;;15.30;99.90;15.30;101219.00;;;;5025073;27;109675;-68
2023/09/08 01:06:50;;;;;;;5.47;3.58;;;15.30;99.90;15.30;101220.00;;;;5027855;27;109278;-67
2023/09/08 01:09:17;;;;;;;3.88;3.47;;;15.30;99.90;15.40;101224.00;;;;5023581;27;119619;-68
2023/09/08 01:11:43;;;;;;;4.72;3.85;;;15.30;99.90;15.40;101225.00;;;;5009284;27;106816;-66
2023/09/08 01:14:11;;;;;;;3.92;2.92;;;15.30;99.90;15.40;101215.00;;;;5024939;27;110511;-67
2023/09/08 01:16:37;;;;;;;5.70;3.17;;;15.30;99.90;15.40;101222.00;;;;5028533;27;88015;-66
2023/09/08 01:19:04;;;;;;;4.25;3.53;;;15.30;99.90;15.40;101212.00;;;;5030132;27;89235;-66
2023/09/08 01:21:44;;;;;;;4.10;3.70;;;15.30;99.90;15.30;101213.00;;;;5006525;27;118027;-67
2023/09/08 01:24:51;;;;;;;5.03;3.60;;;15.30;99.90;15.30;101214.00;;;;5025395;27;95489;-67
2023/09/08 01:27:17;;;;;;;6.22;3.97;;;15.30;99.90;15.30;101215.00;;;;5016995;27;88347;-66
2023/09/08 01:29:45;;;;;;;7.00;3.92;;;15.30;99.90;15.30;101220.00;;;;5030507;27;117883;-66
2023/09/08 01:32:11;;;;;;;3.72;3.13;;;15.30;99.90;15.30;101214.00;;;;5009230;27;88650;-66
2023/09/08 01:34:40;;;;;;;6.28;4.00;;;15.30;99.90;15.30;101212.00;;;;5006776;27;109836;-66
2023/09/08 01:37:07;;;;;;;6.13;3.80;;;15.30;99.90;15.30;101217.00;;;;5030112;27;88291;-67
2023/09/08 01:39:32;;;;;;;6.18;3.67;;;15.30;99.90;15.30;101220.00;;;;5027966;27;117956;-66
2023/09/08 01:41:58;;;;;;;2.55;2.40;;;15.20;99.90;15.20;101222.00;;;;5023152;27;118539;-66
2023/09/08 01:44:24;;;;;;;6.50;3.65;;;15.20;99.90;15.20;101220.00;;;;5025877;27;110694;-66
2023/09/08 01:46:51;;;;;;;4.20;3.53;;;15.20;99.90;15.20;101214.00;;;;5028394;27;108907;-67
2023/09/08 01:49:17;;;;;;;7.82;4.45;;;15.10;99.90;15.10;101204.00;;;;5025835;27;87827;-67
2023/09/08 01:51:43;;;;;;;5.88;3.85;;;15.10;99.90;15.10;101215.00;;;;5024543;27;117389;-66
2023/09/08 01:54:09;;;;;;;4.55;3.55;;;15.10;99.90;15.10;101204.00;;;;5024470;27;109388;-66
2023/09/08 01:56:35;;;;;;;4.35;3.25;;;15.00;99.90;15.00;101206.00;;;;5029618;27;87833;-67
2023/09/08 01:59:00;;;;;;;5.68;3.65;;;15.00;99.90;15.00;101204.00;;;;5024596;27;117755;-67
2023/09/08 02:01:26;;;;;;;5.72;4.05;;;15.00;99.90;15.00;101200.00;;;;5024076;27;116417;-67
2023/09/08 02:03:52;;;;;;;6.15;3.08;;;15.00;99.90;15.00;101205.00;;;;5025234;27;111672;-67
2023/09/08 02:06:17;;;;;;;4.15;3.20;;;14.90;99.90;14.90;101201.00;;;;5024441;27;103781;-68
2023/09/08 02:08:43;;;;;;;6.13;3.10;;;14.90;99.90;14.90;101198.00;;;;5025536;27;119002;-68
2023/09/08 02:11:09;;;;;;;5.70;4.00;;;14.90;99.90;14.90;101202.00;;;;5027163;27;101133;-67
2023/09/08 02:13:34;;;;;;;4.38;3.92;;;14.90;99.90;14.80;101202.00;;;;5025746;27;110789;-67
2023/09/08 02:16:00;;;;;;;4.53;3.28;;;14.80;99.90;14.80;101194.00;;;;5026398;27;108811;-67
2023/09/08 02:18:26;;;;;;;6.50;3.65;;;14.80;99.90;14.70;101197.00;;;;5027401;27;118577;-67
2023/09/08 02:20:51;;;;;;;4.10;3.25;;;14.70;99.90;14.70;101206.00;;;;5023758;27;115883;-67
2023/09/08 02:23:17;;;;;;;4.25;3.75;;;14.70;99.90;14.70;101201.00;;;;5027147;27;109295;-67
2023/09/08 02:25:42;;;;;;;6.82;3.63;;;14.70;99.90;14.70;101196.00;;;;5027691;27;108871;-68
2023/09/08 02:28:08;;;;;;;3.83;3.23;;;14.70;99.90;14.60;101191.00;;;;5023664;27;117286;-67
2023/09/08 02:30:34;;;;;;;4.05;3.72;;;14.60;99.90;14.60;101200.00;;;;5030076;27;117466;-67
2023/09/08 02:32:59;;;;;;;4.75;4.03;;;14.40;99.90;14.60;101195.00;;;;5030583;27;88582;-68
2023/09/08 02:35:25;;;;;;;4.03;3.67;;;14.60;99.90;14.50;101192.00;;;;5009167;27;109174;-67
2023/09/08 02:37:51;;;;;;;4.50;2.85;;;14.50;99.90;14.50;101187.00;;;;5026685;27;117790;-68
2023/09/08 02:40:17;;;;;;;4.37;3.57;;;14.50;99.90;14.50;101191.00;;;;5019983;27;117972;-67
2023/09/08 02:42:43;;;;;;;6.03;3.50;;;14.50;99.90;14.50;101189.00;;;;5031518;27;87832;-67
2023/09/08 02:45:09;;;;;;;6.00;4.27;;;14.50;99.90;14.50;101192.00;;;;5027428;27;107890;-67
2023/09/08 02:47:35;;;;;;;4.93;3.40;;;14.40;99.90;14.40;101194.00;;;;5030302;27;88082;-67
2023/09/08 02:50:02;;;;;;;4.15;3.10;;;14.40;99.90;14.40;101186.00;;;;5029474;27;117249;-67
2023/09/08 02:52:27;;;;;;;3.92;3.13;;;14.40;99.90;14.40;101187.00;;;;5027549;27;87818;-67
2023/09/08 02:54:53;;;;;;;4.45;3.50;;;14.40;99.90;14.40;101179.00;;;;5027358;27;107470;-67
2023/09/08 02:57:29;;;;;;;4.05;3.58;;;14.30;99.90;14.30;101188.00;;;;5025339;27;89598;-68
2023/09/08 02:59:56;;;;;;;3.65;2.92;;;14.30;99.90;14.30;101181.00;;;;5020932;27;118449;-68
2023/09/08 03:02:24;;;;;;;4.78;2.88;;;14.30;99.90;14.20;101183.00;;;;5026907;27;87883;-68
2023/09/08 03:04:50;;;;;;;5.07;3.03;;;14.20;99.90;14.20;101177.00;;;;5027545;27;100929;-68
2023/09/08 03:07:16;;;;;;;4.93;4.15;;;14.20;99.90;14.10;101172.00;;;;5028609;27;117746;-68
2023/09/08 03:09:41;;;;;;;4.20;3.13;;;14.10;99.90;14.10;101168.00;;;;5034152;27;115151;-68
2023/09/08 03:12:07;;;;;;;3.27;2.97;;;14.10;99.90;14.10;101175.00;;;;5034997;27;109919;-68
2023/09/08 03:14:33;;;;;;;4.97;3.60;;;14.10;99.90;14.00;101182.00;;;;5033500;27;86974;-68
2023/09/08 03:16:58;;;;;;;4.93;4.13;;;14.00;99.90;14.00;101177.00;;;;5031168;27;117069;-68
2023/09/08 03:19:24;;;;;;;5.37;4.03;;;14.00;99.90;14.00;101173.00;;;;5030758;27;88290;-67
2023/09/08 03:21:50;;;;;;;5.10;4.60;;;14.00;99.90;13.90;101172.00;;;;5023527;27;108678;-68
2023/09/08 03:24:21;;;;;;;4.30;3.67;;;13.90;99.90;13.90;101174.00;;;;5024591;27;109909;-66
2023/09/08 03:26:47;;;;;;;3.67;3.33;;;13.90;99.90;13.90;101170.00;;;;5024904;27;116909;-67
2023/09/08 03:29:13;;;;;;;3.43;2.87;;;13.90;99.90;13.80;101165.00;;;;5026076;27;117197;-67
2023/09/08 03:31:39;;;;;;;6.63;4.03;;;13.80;99.90;13.80;101165.00;;;;5025417;27;110728;-67
2023/09/08 03:34:04;;;;;;;6.10;4.93;;;13.80;99.90;13.80;101168.00;;;;5029533;27;87709;-66
2023/09/08 03:36:30;;;;;;;5.68;4.15;;;13.80;99.90;13.80;101163.00;;;;5026963;27;111614;-66
2023/09/08 03:38:58;;;;;;;4.80;3.67;;;13.70;99.90;13.70;101165.00;;;;5024136;27;87909;-67
2023/09/08 03:41:23;;;;;;;4.00;3.63;;;13.70;99.90;13.70;101164.00;;;;5028435;27;87533;-66
2023/09/08 03:43:49;;;;;;;5.07;3.07;;;13.70;99.90;13.70;101166.00;;;;5026511;27;87777;-67
2023/09/08 03:46:15;;;;;;;4.40;3.40;;;13.70;99.90;13.60;101162.00;;;;5027543;27;89900;-67
2023/09/08 03:48:40;;;;;;;5.87;3.80;;;13.70;99.90;13.60;101158.00;;;;5025020;27;119556;-67
2023/09/08 03:51:06;;;;;;;4.27;3.67;;;13.60;99.90;13.60;101169.00;;;;5023360;27;110377;-67
2023/09/08 03:53:32;;;;;;;3.80;3.00;;;13.50;99.90;13.50;101167.00;;;;5025490;27;107148;-67
2023/09/08 03:55:57;;;;;;;4.43;3.93;;;13.50;99.90;13.50;101159.00;;;;5024293;27;117719;-67
2023/09/08 03:58:23;;;;;;;4.30;3.67;;;13.50;99.90;13.50;101166.00;;;;5026900;27;116585;-67
2023/09/08 04:00:49;;;;;;;5.00;3.53;;;13.50;99.90;13.40;101164.00;;;;5023041;27;110205;-67
2023/09/08 04:03:15;;;;;;;4.23;3.93;;;13.50;99.90;13.40;101165.00;;;;5026042;27;109110;-68
2023/09/08 04:05:40;;;;;;;4.83;4.00;;;13.40;99.90;13.40;101164.00;;;;5009528;27;99333;-67
2023/09/08 04:08:06;;;;;;;5.63;4.03;;;13.40;99.90;13.30;101164.00;;;;5022930;27;116821;-68
2023/09/08 04:10:32;;;;;;;5.37;4.40;;;13.30;99.90;13.30;101169.00;;;;5027342;27;110140;-67
2023/09/08 04:12:57;;;;;;;4.47;4.07;;;13.30;99.90;13.30;101173.00;;;;5023181;27;107627;-67
2023/09/08 04:15:23;;;;;;;7.50;3.60;;;13.30;99.90;13.20;101167.00;;;;5023505;27;116762;-68
2023/09/08 04:17:49;;;;;;;5.40;3.97;;;13.30;99.90;13.20;101167.00;;;;5025341;27;118373;-67
2023/09/08 04:20:15;;;;;;;4.90;3.80;;;13.20;99.90;13.20;101168.00;;;;5030225;27;109980;-67
2023/09/08 04:22:41;;;;;;;4.80;3.47;;;13.20;99.90;13.10;101161.00;;;;5030254;27;87975;-67
2023/09/08 04:25:07;;;;;;;4.07;3.17;;;13.10;99.90;13.10;101171.00;;;;5030563;27;88493;-67
2023/09/08 04:27:33;;;;;;;4.17;3.50;;;13.00;99.90;13.00;101173.00;;;;5025968;27;108001;-68
2023/09/08 04:29:59;;;;;;;4.07;3.67;;;13.10;99.90;13.00;101166.00;;;;5007785;27;87890;-67
2023/09/08 04:32:25;;;;;;;4.10;3.70;;;13.00;99.90;13.00;101176.00;;;;5026804;27;87845;-67
2023/09/08 04:34:51;;;;;;;7.07;5.30;;;13.00;99.90;12.90;101172.00;;;;5021143;27;89933;-67
2023/09/08 04:37:16;;;;;;;6.83;4.33;;;13.00;99.90;12.90;101180.00;;;;5030008;27;89109;-67
2023/09/08 04:39:42;;;;;;;5.87;3.33;;;12.90;99.90;12.90;101174.00;;;;5024868;27;111016;-67
2023/09/08 04:42:08;;;;;;;3.83;3.33;;;12.90;99.90;12.90;101175.00;;;;5021557;27;91393;-67
2023/09/08 04:44:33;;;;;;;5.93;3.87;;;12.90;99.90;12.90;101174.00;;;;5022354;27;116594;-68
2023/09/08 04:46:59;;;;;;;4.47;3.27;;;12.90;99.90;12.90;101170.00;;;;5011274;27;117640;-67
2023/09/08 04:49:25;;;;;;;3.83;3.53;;;12.90;99.90;12.90;101168.00;;;;5019661;27;87777;-67
2023/09/08 04:51:50;;;;;;;4.73;3.97;;;12.90;99.90;12.90;101170.00;;;;5023866;27;108719;-67
2023/09/08 04:54:16;;;;;;;4.40;3.37;;;12.90;99.90;12.90;101168.00;;;;5022618;27;120161;-67
2023/09/08 04:56:42;;;;;;;5.77;4.30;;;12.90;99.90;12.90;101169.00;;;;5026416;27;115781;-67
2023/09/08 04:59:07;;;;;;;4.80;4.13;;;12.90;99.90;13.00;101177.00;;;;5029639;27;88852;-67
2023/09/08 05:01:36;;;;;;;5.30;3.90;;;12.90;99.90;13.00;101162.00;;;;5028491;27;109274;-67
2023/09/08 05:04:02;;;;;;;7.30;3.47;;;12.90;99.90;13.00;101164.00;;;;5029962;27;89191;-67
2023/09/08 05:06:28;;;;;;;4.27;3.67;;;13.00;99.90;13.00;101174.00;;;;5025122;27;88232;-66
2023/09/08 05:08:53;;;;;;;5.37;4.07;;;13.00;99.90;13.10;101168.00;;;;5026067;27;110383;-66
2023/09/08 05:11:19;;;;;;;4.87;3.67;;;13.10;99.90;13.20;101172.00;;;;5028840;27;108453;-67
2023/09/08 05:13:46;;;;;;;6.33;3.47;;;13.10;99.90;13.20;101170.00;;;;5025713;27;93836;-66
2023/09/08 05:16:12;;;;;;;3.97;3.57;;;13.20;99.90;13.40;101174.00;;;;5018700;27;105923;-66
2023/09/08 05:18:41;;;;;;;6.10;4.07;;;13.30;99.90;13.50;101186.00;;;;5023273;27;89000;-67
2023/09/08 05:21:07;;;;;;;6.67;4.17;;;13.40;99.90;13.60;101185.00;;;;5028559;27;99747;-67
2023/09/08 05:23:33;;;;;;;7.57;4.00;;;13.50;99.90;13.80;101190.00;;;;5023771;27;112243;-66
2023/09/08 05:26:00;;;;;;;4.87;3.80;;;13.60;99.90;13.90;101188.00;;;;5025917;27;89971;-66
2023/09/08 05:28:27;;;;;;;5.33;4.27;;;13.80;99.90;14.10;101191.00;;;;5026343;27;87848;-66
2023/09/08 05:30:53;;;;;;;8.13;4.73;;;14.00;99.90;14.30;101192.00;;;;5024818;27;87821;-66
2023/09/08 05:33:19;;;;;;;6.75;4.03;;;14.20;99.90;14.50;101191.00;;;;5022825;27;113072;-66
2023/09/08 05:35:45;;;;;;;5.27;3.03;;;14.30;99.90;14.70;101192.00;;;;5007811;27;116604;-66
2023/09/08 05:38:12;;;;;;;5.17;4.53;;;14.50;99.90;14.80;101189.00;;;;5029826;27;109356;-66
2023/09/08 05:40:37;;;;;;;8.93;4.20;;;14.70;99.90;15.00;101196.00;;;;5025258;27;108949;-66
2023/09/08 05:43:04;;;;;;;6.68;3.05;;;14.70;99.90;15.20;101202.00;;;;5023278;27;89006;-68
2023/09/08 05:45:32;;;;;;;5.57;3.85;;;15.00;99.90;15.40;101195.00;;;;5026746;27;106726;-65
2023/09/08 05:47:57;;;;;;;5.20;3.43;;;15.20;99.90;15.60;101192.00;;;;5023450;27;88674;-67
2023/09/08 05:50:23;;;;;;;4.28;3.88;;;15.40;99.90;15.80;101195.00;;;;5019736;27;87885;-66
2023/09/08 05:52:49;;;;;;;3.80;3.25;;;15.60;99.90;16.00;101191.00;;;;5024557;27;118020;-66
2023/09/08 05:55:14;;;;;;;4.63;3.58;;;15.80;99.90;16.20;101199.00;;;;5024506;27;116660;-67
2023/09/08 05:57:40;;;;;;;10.20;4.38;;;16.10;99.90;16.50;101199.00;;;;5023303;27;110699;-67
2023/09/08 06:00:07;;;;;;;4.03;3.40;;;16.30;99.90;16.80;101203.00;;;;5027919;27;88204;-66
2023/09/08 06:02:33;;;;;;;3.22;2.47;;;16.50;99.90;17.00;101202.00;;;;5027527;27;96752;-66
2023/09/08 06:04:58;;;;;;;7.63;4.40;;;16.70;99.90;17.30;101206.00;;;;5023952;27;116566;-65
2023/09/08 06:07:24;;;;;;;5.85;4.00;;;17.10;99.90;17.60;101198.00;;;;5024330;27;109827;-66
2023/09/08 06:09:50;;;;;;;10.13;4.65;;;17.30;99.90;17.80;101199.00;;;;5023757;27;109197;-66
2023/09/08 06:12:15;;;;;;;4.93;3.47;;;17.60;99.90;18.10;101200.00;;;;5025359;27;119916;-66
2023/09/08 06:14:41;;;;;;;6.07;4.35;;;17.80;99.90;18.30;101195.00;;;;5024080;27;118321;-66
2023/09/08 06:17:07;;;;;;;3.58;2.50;;;18.00;99.90;18.50;101196.00;;;;5031279;27;112650;-67
2023/09/08 06:19:33;;;;;;;6.82;3.53;;;18.30;99.90;18.80;101194.00;;;;5030332;27;87838;-66
2023/09/08 06:21:58;;;;;;;3.60;3.22;;;18.50;99.90;19.00;101197.00;;;;5023581;27;117125;-66
2023/09/08 06:24:24;;;;;;;4.35;3.15;;;18.80;99.90;19.20;101195.00;;;;5023526;27;115768;-66
2023/09/08 06:26:50;;;;;;;5.05;4.35;;;18.90;99.90;19.30;101199.00;;;;5025474;27;94607;-67
2023/09/08 06:29:15;;;;;;;5.07;3.63;;;19.10;99.90;19.40;101203.00;;;;5023200;27;109003;-67
2023/09/08 06:31:41;;;;;;;4.50;3.28;;;19.20;99.90;19.60;101193.00;;;;5026326;27;100998;-66
2023/09/08 06:34:07;;;;;;;4.15;3.53;;;19.30;99.90;19.80;101194.00;;;;5022969;27;116625;-67
2023/09/08 06:36:32;;;;;;;4.40;3.33;;;19.50;99.90;20.00;101192.00;;;;5025847;27;96748;-67
2023/09/08 06:38:59;;;;;;;4.90;3.35;;;19.70;99.90;20.20;101190.00;;;;5022784;27;108594;-67
2023/09/08 06:41:27;;;;;;;5.50;3.63;;;20.00;99.90;20.50;101191.00;;;;5020995;27;108662;-67
2023/09/08 06:43:52;;;;;;;3.72;3.30;;;20.20;99.90;20.80;101197.00;;;;5022652;27;88460;-66
2023/09/08 06:46:18;;;;;;;3.65;3.22;;;20.50;99.90;21.00;101200.00;;;;5008069;27;109796;-67
2023/09/08 06:48:44;;;;;;;4.43;3.55;;;20.70;99.90;21.30;101198.00;;;;5008750;27;107050;-67
2023/09/08 06:51:09;;;;;;;3.97;3.22;;;21.00;99.90;21.50;101196.00;;;;5025074;27;88451;-67
2023/09/08 06:53:36;;;;;;;3.13;2.67;;;21.30;99.90;21.80;101202.00;;;;5026229;27;117424;-67
2023/09/08 06:56:02;;;;;;;3.90;2.97;;;21.50;99.90;22.10;101210.00;;;;5024765;27;88004;-67
2023/09/08 06:58:28;;;;;;;3.20;2.90;;;21.80;99.90;22.40;101201.00;;;;5021551;27;100879;-67
2023/09/08 07:00:54;;;;;;;4.30;3.08;;;22.10;99.90;22.60;101195.00;;;;5025454;27;109608;-67
2023/09/08 07:03:22;;;;;;;3.58;3.28;;;22.40;99.90;22.80;101199.00;;;;5025268;27;88046;-67
2023/09/08 07:05:49;;;;;;;4.35;2.97;;;22.50;99.90;23.00;101204.00;;;;5023075;27;88195;-67
2023/09/08 07:08:15;;;;;;;4.68;3.38;;;22.70;99.70;23.10;101200.00;;;;5026681;27;87826;-67
2023/09/08 07:10:41;;;;;;;3.72;2.85;;;22.80;99.00;23.30;101203.00;;;;5024706;27;114833;-68
2023/09/08 07:13:06;;;;;;;5.07;3.03;;;23.00;98.50;23.50;101203.00;;;;5022588;27;114362;-67
2023/09/08 07:15:32;;;;;;;3.80;2.45;;;23.20;97.60;23.60;101199.00;;;;5025471;27;98136;-66
2023/09/08 07:17:57;;;;;;;4.10;2.75;;;23.40;96.80;23.70;101205.00;;;;5022622;27;111935;-68
2023/09/08 07:20:41;;;;;;;3.33;2.47;;;23.50;96.30;23.90;101199.00;;;;5020715;27;116477;-67
2023/09/08 07:23:07;;;;;;;3.35;2.85;;;23.60;96.10;24.10;101209.00;;;;5024529;27;102938;-66
2023/09/08 07:25:32;;;;;;;3.33;3.03;;;23.80;95.80;24.30;101200.00;;;;5022573;27;104162;-68
2023/09/08 07:27:58;;;;;;;3.55;2.70;;;24.00;95.50;24.50;101217.00;;;;5022321;27;107793;-66
2023/09/08 07:30:23;;;;;;;3.10;2.83;;;24.20;94.60;24.70;101217.00;;;;5023640;27;117485;-66
2023/09/08 07:32:49;;;;;;;3.30;2.05;;;24.40;94.10;25.00;101215.00;;;;5019883;27;117911;-66
2023/09/08 07:35:16;;;;;;;4.70;2.58;;;24.60;93.10;25.20;101212.00;;;;5023196;27;109803;-67
2023/09/08 07:37:43;;;;;;;3.15;2.03;;;24.90;93.10;25.40;101213.00;;;;5028199;27;87902;-65
2023/09/08 07:40:11;;;;;;;2.05;1.92;;;25.10;92.30;25.60;101216.00;;;;5026152;27;88688;-66
2023/09/08 07:42:37;;;;;;;3.97;2.65;;;25.30;92.00;25.90;101216.00;;;;5025285;27;87672;-67
2023/09/08 07:45:03;;;;;;;5.07;2.30;;;25.60;90.70;26.00;101215.00;;;;5023710;27;109243;-67
2023/09/08 07:47:29;;;;;;;4.65;2.08;;;25.70;88.50;26.00;101213.00;;;;5028993;27;87961;-67
2023/09/08 07:50:23;;;;;;;4.35;2.95;;;25.70;88.60;26.20;101218.00;;;;5021488;27;117939;-66
2023/09/08 07:52:50;;;;;;;2.67;1.73;;;25.90;88.20;26.30;101218.00;;;;5024128;27;88027;-67
2023/09/08 07:55:17;;;;;;;2.80;2.53;;;26.00;86.40;26.50;101212.00;;;;5024137;27;87838;-67
2023/09/08 07:57:45;;;;;;;2.28;2.13;;;26.20;84.40;26.60;101211.00;;;;5006186;27;87731;-67
2023/09/08 08:00:12;;;;;;;2.33;2.13;;;26.30;84.20;26.80;101214.00;;;;5028343;27;88814;-67
2023/09/08 08:02:42;;;;;;;2.15;1.70;;;26.50;82.20;26.90;101213.00;;;;5026484;27;88576;-67
2023/09/08 08:05:08;;;;;;;5.03;2.58;;;26.60;82.00;27.10;101205.00;;;;5027043;27;88067;-66
2023/09/08 08:07:34;;;;;;;2.53;2.30;;;26.70;81.20;27.40;101218.00;;;;5026754;27;108983;-68
2023/09/08 08:10:00;;;;;;;3.65;2.03;;;27.00;81.40;27.70;101214.00;;;;5023707;27;118067;-66
2023/09/08 08:12:26;;;;;;;3.05;2.28;;;27.30;78.00;27.80;101218.00;;;;5028743;27;87879;-66
2023/09/08 08:14:51;;;;;;;5.25;3.05;;;27.40;77.20;28.00;101211.00;;;;5024227;27;109954;-67
2023/09/08 08:17:19;;;;;;;2.40;2.20;;;27.60;76.90;28.20;101210.00;;;;4997873;27;88080;-66
2023/09/08 08:19:45;;;;;;;2.65;1.90;;;27.80;76.20;28.40;101215.00;;;;5025097;27;88070;-66
2023/09/08 08:22:11;;;;;;;2.78;2.28;;;28.00;74.90;28.70;101206.00;;;;5028711;27;100403;-67
2023/09/08 08:24:36;;;;;;;2.75;2.10;;;28.30;74.40;28.90;101205.00;;;;5027514;27;100644;-67
2023/09/08 08:27:02;;;;;;;4.55;1.98;;;28.50;73.70;29.20;101209.00;;;;5030890;27;107838;-67
2023/09/08 08:29:29;;;;;;;5.20;2.30;;;28.80;72.40;29.40;101200.00;;;;5022482;27;87983;-68
2023/09/08 08:31:55;;;;;;;4.50;2.65;;;28.90;69.30;29.40;101198.00;;;;5025515;27;105460;-68
2023/09/08 08:34:20;;;;;;;2.50;1.90;;;29.10;67.10;29.40;101197.00;;;;5028712;27;87749;-67
2023/09/08 08:36:46;;;;;;;1.85;1.52;;;29.10;66.70;29.50;101198.00;;;;5033364;27;87911;-66
2023/09/08 08:39:12;;;;;;;2.53;1.75;;;29.20;66.50;29.70;101195.00;;;;5020740;27;89008;-68
2023/09/08 08:41:39;;;;;;;3.88;2.72;;;29.30;64.30;29.80;101193.00;;;;5024234;27;117704;-68
2023/09/08 08:44:08;;;;;;;7.50;2.22;;;29.40;64.10;30.00;101202.00;;;;5024170;27;87726;-68
2023/09/08 08:46:36;;;;;;;2.20;1.52;;;29.60;64.60;30.40;101199.00;;;;5012668;27;99640;-70
2023/09/08 08:49:04;;;;;;;2.10;1.90;;;29.90;60.90;30.30;101194.00;;;;5027035;27;104525;-69
2023/09/08 08:51:31;;;;;;;2.47;1.58;;;30.00;59.50;30.30;101188.00;;;;5024859;27;87824;-70
2023/09/08 08:53:57;;;;;;;2.47;1.95;;;30.00;59.30;30.30;101188.00;;;;5026600;27;87826;-69
2023/09/08 08:56:23;;;;;;;2.38;1.88;;;30.00;59.30;30.40;101194.00;;;;5024077;27;108346;-69
2023/09/08 08:58:50;;;;;;;4.32;2.08;;;30.00;59.60;30.70;101187.00;;;;5025415;27;104347;-70
2023/09/08 09:01:21;;;;;;;5.03;2.03;;;30.30;58.30;30.80;101181.00;;;;5022264;27;105590;-69
2023/09/08 09:03:49;;;;;;;8.05;2.10;;;30.40;56.00;30.60;101185.00;;;;5030699;27;88862;-70
2023/09/08 09:06:16;;;;;;;2.60;2.00;;;30.30;55.80;30.50;101188.00;;;;5028642;27;87772;-70
2023/09/08 09:08:46;;;;;;;2.40;1.80;;;30.20;55.90;30.30;101190.00;;;;5029762;27;118377;-69
2023/09/08 09:11:12;;;;;;;2.97;1.50;;;30.00;55.90;30.20;101184.00;;;;5025310;27;88776;-69
2023/09/08 09:13:38;;;;;;;2.35;2.03;;;29.90;56.30;30.40;101184.00;;;;5027775;27;99096;-69
2023/09/08 09:16:10;;;;;;;2.35;1.75;;;30.00;55.30;30.40;101182.00;;;;5026227;27;88064;-71
2023/09/08 09:18:59;;;;;;;2.88;1.92;;;29.90;54.70;30.30;101181.00;;;;5011554;27;88070;-69
2023/09/08 09:21:47;;;;;;;3.53;1.58;;;30.00;55.20;30.50;101179.00;;;;5011848;27;87176;-68
2023/09/08 09:24:18;;;;;;;3.60;2.20;;;30.00;54.70;30.40;101185.00;;;;5007599;27;87757;-69
2023/09/08 09:26:43;;;;;;;3.40;2.05;;;30.00;54.70;30.60;101172.00;;;;5005917;27;90324;-69
2023/09/08 09:29:15;;;;;;;2.05;1.92;;;30.10;54.90;30.70;101174.00;;;;5026944;27;118587;-67
2023/09/08 09:32:07;;;;;;;2.50;2.08;;;30.20;54.50;30.80;101169.00;;;;5006447;27;87784;-71
2023/09/08 09:34:34;;;;;;;1.17;1.08;;;30.30;54.30;31.00;101166.00;;;;5007829;27;87710;-71
2023/09/08 09:37:00;;;;;;;1.95;1.48;;;30.50;54.50;31.20;101167.00;;;;5026964;27;88080;-69
2023/09/08 09:39:27;;;;;;;2.22;1.65;;;30.60;53.40;31.30;101164.00;;;;5006019;27;117268;-69
2023/09/08 09:41:57;;;;;;;3.05;1.83;;;30.70;53.20;31.50;101164.00;;;;5030347;27;104443;-69
2023/09/08 09:44:24;;;;;;;2.03;1.30;;;30.90;53.20;31.60;101159.00;;;;5024416;27;87937;-68
2023/09/08 09:46:53;;;;;;;4.97;2.22;;;31.00;52.60;31.80;101164.00;;;;5022669;27;90003;-70
2023/09/08 09:49:19;;;;;;;1.65;1.30;;;31.10;52.20;31.70;101166.00;;;;5027749;27;88426;-70
2023/09/08 09:51:47;;;;;;;2.45;1.48;;;31.10;51.30;31.50;101164.00;;;;5025038;27;88652;-68
2023/09/08 09:54:14;;;;;;;2.25;1.73;;;31.00;51.00;31.40;101156.00;;;;5024366;27;89044;-70
2023/09/08 09:56:41;;;;;;;2.25;1.60;;;30.90;50.90;31.50;101160.00;;;;5025599;27;87566;-71
2023/09/08 09:59:15;;;;;;;1.88;1.38;;;30.90;51.20;31.70;101164.00;;;;5008962;27;88535;-71
2023/09/08 10:01:42;;;;;;;2.00;1.58;;;31.00;51.10;31.70;101160.00;;;;5004492;27;87764;-71
2023/09/08 10:04:08;;;;;;;3.42;2.40;;;31.10;50.50;31.80;101156.00;;;;5024123;27;87762;-71
2023/09/08 10:06:36;;;;;;;2.53;1.63;;;31.20;50.60;31.90;101155.00;;;;5024995;27;102624;-70
2023/09/08 10:09:08;;;;;;;2.63;2.00;;;31.30;50.00;32.00;101157.00;;;;5024586;27;89211;-70
2023/09/08 10:11:48;;;;;;;1.88;1.73;;;31.40;49.10;31.80;101152.00;;;;5010155;27;87164;-70
2023/09/08 10:14:16;;;;;;;1.50;1.40;;;31.30;49.20;31.60;101149.00;;;;5025413;27;88022;-71
2023/09/08 10:16:49;;;;;;;2.05;1.25;;;31.20;49.20;31.60;101140.00;;;;5008865;27;87774;-69
2023/09/08 10:19:16;;;;;;;2.22;1.70;;;31.10;49.60;31.80;101140.00;;;;5025349;27;88885;-71
2023/09/08 10:21:47;;;;;;;2.28;1.73;;;31.20;50.00;32.10;101144.00;;;;5011274;27;88343;-72
2023/09/08 10:24:22;;;;;;;2.28;1.25;;;31.40;49.80;32.40;101142.00;;;;5013082;27;110119;-69
2023/09/08 10:27:04;;;;;;;5.70;1.80;;;31.60;49.60;32.50;101138.00;;;;5025213;27;87751;-70
2023/09/08 10:29:30;;;;;;;2.85;1.98;;;31.90;48.20;32.60;101136.00;;;;5008403;27;108270;-69
2023/09/08 10:31:57;;;;;;;2.85;1.52;;;31.90;48.40;32.90;101128.00;;;;5008422;27;88105;-70
2023/09/08 10:34:25;;;;;;;1.73;1.60;;;32.20;48.60;33.10;101138.00;;;;5005344;27;88078;-71
2023/09/08 10:36:51;;;;;;;4.03;1.88;;;32.40;47.20;33.30;101134.00;;;;5013198;27;86844;-70
2023/09/08 10:39:31;;;;;;;1.58;1.45;;;32.50;46.30;33.40;101135.00;;;;5027999;27;96762;-71
2023/09/08 10:42:16;;;;;;;2.03;1.63;;;32.70;45.90;33.40;101139.00;;;;5012407;27;87817;-70